Time;durP1;ratioP1;P1;durP2;ratioP2;P2;SDS_P1;SDS_P2;PMS_P1;PMS_P2;Temp;Humidity;BMP_temperature;BMP_pressure;BME280_temperature;BME280_humidity;BME280_pressure;Samples;Min_cycle;Max_cycle;Signal;HPM_P1;HPM_P2
2022/09/12 00:01:09;;;;;;;14.10;12.53;;;12.50;99.90;;;;;;5051044;28;20479;-64
2022/09/12 00:03:36;;;;;;;13.50;12.13;;;12.40;99.90;;;;;;5051327;28;20448;-65
2022/09/12 00:06:08;;;;;;;12.20;11.00;;;12.40;99.90;;;;;;5051361;28;20803;-64
2022/09/12 00:08:35;;;;;;;13.97;12.50;;;12.30;99.90;;;;;;5051133;28;20545;-64
2022/09/12 00:11:08;;;;;;;15.30;13.17;;;12.30;99.90;;;;;;5050787;28;20470;-66
2022/09/12 00:13:35;;;;;;;15.77;14.17;;;12.30;99.90;;;;;;5050755;28;20440;-65
2022/09/12 00:16:02;;;;;;;14.23;12.73;;;12.40;99.90;;;;;;5051028;28;21012;-64
2022/09/12 00:18:28;;;;;;;15.00;13.40;;;12.30;99.90;;;;;;5050996;28;20820;-65
2022/09/12 00:20:55;;;;;;;14.80;13.40;;;12.20;99.90;;;;;;5050959;28;20448;-64
2022/09/12 00:23:22;;;;;;;15.27;13.70;;;12.30;99.90;;;;;;5050631;28;20460;-64
2022/09/12 00:25:49;;;;;;;13.33;11.73;;;12.30;99.90;;;;;;5050482;28;20941;-64
2022/09/12 00:28:18;;;;;;;15.33;13.87;;;12.20;99.90;;;;;;5050771;28;20458;-65
2022/09/12 00:30:46;;;;;;;14.20;12.33;;;12.20;99.90;;;;;;5050505;28;21016;-64
2022/09/12 00:33:13;;;;;;;14.17;12.27;;;12.20;99.90;;;;;;5050236;28;20914;-64
2022/09/12 00:35:44;;;;;;;14.20;12.83;;;12.20;99.90;;;;;;5050449;28;20440;-64
2022/09/12 00:38:11;;;;;;;14.83;12.97;;;12.20;99.90;;;;;;5030634;28;20472;-65
2022/09/12 00:40:38;;;;;;;13.90;12.43;;;12.20;99.90;;;;;;5030565;28;20445;-65
2022/09/12 00:43:04;;;;;;;15.73;13.00;;;12.20;99.90;;;;;;5030356;28;20476;-65
2022/09/12 00:45:32;;;;;;;13.30;12.10;;;12.20;99.90;;;;;;5045454;28;20451;-64
2022/09/12 00:48:03;;;;;;;13.80;12.40;;;12.10;99.90;;;;;;5050442;28;20439;-65
2022/09/12 00:50:32;;;;;;;13.07;11.77;;;12.20;99.90;;;;;;5049308;28;20480;-66
2022/09/12 00:53:04;;;;;;;13.10;11.77;;;12.10;99.90;;;;;;5049842;28;20522;-64
2022/09/12 00:55:37;;;;;;;13.90;12.50;;;12.20;99.90;;;;;;5050604;28;20530;-63
2022/09/12 00:58:09;;;;;;;14.37;11.97;;;12.10;99.90;;;;;;5050430;28;20898;-64
2022/09/12 01:00:37;;;;;;;14.70;13.17;;;12.10;99.90;;;;;;5050379;28;20451;-63
2022/09/12 01:03:09;;;;;;;15.37;13.77;;;12.00;99.90;;;;;;5050002;28;20475;-63
2022/09/12 01:05:42;;;;;;;15.90;13.20;;;12.00;99.90;;;;;;5049936;28;20872;-63
2022/09/12 01:08:09;;;;;;;13.93;12.63;;;12.00;99.90;;;;;;5050206;28;20497;-65
2022/09/12 01:10:38;;;;;;;15.73;12.83;;;12.10;99.90;;;;;;5049864;28;20503;-64
2022/09/12 01:13:08;;;;;;;15.63;14.03;;;12.10;99.90;;;;;;5049429;28;20460;-65
2022/09/12 01:15:39;;;;;;;14.67;13.27;;;12.10;99.90;;;;;;5049990;28;20452;-64
2022/09/12 01:18:16;;;;;;;16.47;14.87;;;12.00;99.90;;;;;;5049795;28;20459;-65
2022/09/12 01:21:05;;;;;;;17.07;13.30;;;12.00;99.90;;;;;;5030336;28;20483;-66
2022/09/12 01:24:09;;;;;;;14.47;12.97;;;12.10;99.90;;;;;;5030170;28;20444;-64
2022/09/12 01:27:12;;;;;;;14.60;13.20;;;12.10;99.90;;;;;;5049518;28;20527;-65
2022/09/12 01:30:03;;;;;;;14.53;13.03;;;12.10;99.90;;;;;;5049940;28;20475;-64
2022/09/12 01:32:41;;;;;;;16.87;13.60;;;12.00;99.90;;;;;;5029499;28;20480;-64
2022/09/12 01:35:20;;;;;;;16.63;14.87;;;11.90;99.90;;;;;;5029754;28;20451;-65
2022/09/12 01:37:54;;;;;;;15.83;13.40;;;11.90;99.90;;;;;;5033043;28;20452;-64
2022/09/12 01:40:27;;;;;;;16.27;14.20;;;11.90;99.90;;;;;;5049771;28;20444;-65
2022/09/12 01:43:02;;;;;;;14.17;12.50;;;11.80;99.90;;;;;;5049032;28;20843;-64
2022/09/12 01:45:32;;;;;;;14.80;13.10;;;11.80;99.90;;;;;;5049630;28;20473;-64
2022/09/12 01:48:05;;;;;;;15.77;13.80;;;11.90;99.90;;;;;;5049580;28;20451;-65
2022/09/12 01:50:36;;;;;;;16.37;14.50;;;11.90;99.90;;;;;;5049455;28;20487;-65
2022/09/12 01:53:10;;;;;;;16.60;15.00;;;12.00;99.90;;;;;;5048990;28;20471;-64
2022/09/12 01:55:41;;;;;;;16.73;13.70;;;12.00;99.90;;;;;;5049314;28;20550;-64
2022/09/12 01:58:13;;;;;;;14.77;13.20;;;12.00;99.90;;;;;;5049555;28;20436;-64
2022/09/12 02:00:43;;;;;;;17.73;13.43;;;12.00;99.90;;;;;;5050075;28;20436;-65
2022/09/12 02:03:16;;;;;;;14.60;13.13;;;11.90;99.90;;;;;;5053122;28;20981;-65
2022/09/12 02:05:47;;;;;;;13.60;12.30;;;11.90;99.90;;;;;;5053460;28;20451;-65
2022/09/12 02:08:17;;;;;;;15.80;12.83;;;12.00;99.90;;;;;;5053302;28;20451;-63
2022/09/12 02:10:47;;;;;;;17.17;12.60;;;12.00;99.90;;;;;;5053133;28;20483;-63
2022/09/12 02:13:21;;;;;;;15.57;13.93;;;12.00;99.90;;;;;;5052998;28;20448;-64
2022/09/12 02:15:51;;;;;;;13.37;11.70;;;11.90;99.90;;;;;;5053291;28;20450;-65
2022/09/12 02:18:21;;;;;;;13.67;12.27;;;11.80;99.90;;;;;;5053211;28;20795;-64
2022/09/12 02:20:49;;;;;;;16.10;13.40;;;11.70;99.90;;;;;;5053079;28;20440;-64
2022/09/12 02:23:21;;;;;;;12.80;11.33;;;11.70;99.90;;;;;;5052940;28;20841;-64
2022/09/12 02:25:52;;;;;;;12.90;11.60;;;11.70;99.90;;;;;;5052779;28;20478;-64
2022/09/12 02:28:24;;;;;;;14.70;13.10;;;11.70;99.90;;;;;;5053047;28;20949;-64
2022/09/12 02:31:01;;;;;;;13.70;12.30;;;11.70;99.90;;;;;;5052632;28;20484;-66
2022/09/12 02:33:37;;;;;;;15.13;13.20;;;11.80;99.90;;;;;;5052704;28;20439;-64
2022/09/12 02:36:13;;;;;;;14.20;12.60;;;11.80;99.90;;;;;;5052668;28;20930;-63
2022/09/12 02:38:44;;;;;;;15.50;13.90;;;11.60;99.90;;;;;;5071019;28;20463;-64
2022/09/12 02:41:14;;;;;;;14.27;12.80;;;11.50;99.90;;;;;;5056773;28;20471;-64
2022/09/12 02:43:41;;;;;;;14.93;13.47;;;11.60;99.90;;;;;;5052705;28;20444;-64
2022/09/12 02:46:11;;;;;;;16.83;12.50;;;11.60;99.90;;;;;;5053069;28;20444;-65
2022/09/12 02:48:43;;;;;;;14.30;12.80;;;11.50;99.90;;;;;;5052854;28;20507;-64
2022/09/12 02:51:10;;;;;;;17.93;13.30;;;11.40;99.90;;;;;;5052698;28;20476;-65
2022/09/12 02:53:38;;;;;;;14.93;13.33;;;11.50;99.90;;;;;;5052138;28;20447;-66
2022/09/12 02:56:08;;;;;;;13.90;12.10;;;11.40;99.90;;;;;;5052537;28;20440;-65
2022/09/12 02:58:34;;;;;;;16.30;13.70;;;11.40;99.90;;;;;;5052380;28;20960;-65
2022/09/12 03:01:11;;;;;;;14.17;12.70;;;11.40;99.90;;;;;;5052494;28;20968;-64
2022/09/12 03:04:00;;;;;;;15.43;12.90;;;11.50;99.90;;;;;;5051989;28;20946;-66
2022/09/12 03:06:37;;;;;;;17.10;14.43;;;11.50;99.90;;;;;;5052246;28;20448;-64
2022/09/12 03:09:12;;;;;;;15.63;12.20;;;11.40;99.90;;;;;;5052394;28;21158;-63
2022/09/12 03:12:08;;;;;;;16.63;14.57;;;11.40;99.90;;;;;;5052355;28;20460;-65
2022/09/12 03:15:00;;;;;;;15.13;13.33;;;11.40;99.90;;;;;;5052238;28;20466;-64
2022/09/12 03:17:40;;;;;;;15.23;13.67;;;11.30;99.90;;;;;;5052278;28;20452;-64
2022/09/12 03:20:13;;;;;;;13.90;12.07;;;11.30;99.90;;;;;;5051959;28;20452;-65
2022/09/12 03:22:50;;;;;;;13.70;12.30;;;11.30;99.90;;;;;;5051934;28;20468;-64
2022/09/12 03:25:21;;;;;;;15.10;13.50;;;11.30;99.90;;;;;;5051900;28;20460;-64
2022/09/12 03:27:56;;;;;;;15.70;13.53;;;11.30;99.90;;;;;;5052013;28;20444;-64
2022/09/12 03:30:22;;;;;;;15.43;13.70;;;11.30;99.90;;;;;;5051845;28;20480;-64
2022/09/12 03:32:51;;;;;;;15.47;13.57;;;11.30;99.90;;;;;;5051728;28;20464;-65
2022/09/12 03:35:21;;;;;;;16.00;14.10;;;11.30;99.90;;;;;;5051783;28;20452;-64
2022/09/12 03:37:49;;;;;;;18.73;13.10;;;11.30;99.90;;;;;;5051899;28;20459;-65
2022/09/12 03:40:16;;;;;;;15.50;13.33;;;11.30;99.90;;;;;;5051618;28;20820;-64
2022/09/12 03:42:43;;;;;;;16.37;13.27;;;11.30;99.90;;;;;;5051423;28;20510;-65
2022/09/12 03:45:11;;;;;;;15.30;13.23;;;11.30;99.90;;;;;;5051467;28;20812;-64
2022/09/12 03:47:38;;;;;;;15.47;13.77;;;11.20;99.90;;;;;;5051404;28;20448;-66
2022/09/12 03:50:06;;;;;;;14.50;12.57;;;11.20;99.90;;;;;;5051036;28;20480;-64
2022/09/12 03:52:34;;;;;;;14.57;12.93;;;11.20;99.90;;;;;;5051245;28;20486;-65
2022/09/12 03:55:01;;;;;;;21.37;13.67;;;11.20;99.90;;;;;;5051528;28;20808;-64
2022/09/12 03:57:28;;;;;;;17.00;15.30;;;11.20;99.90;;;;;;5051502;28;20445;-64
2022/09/12 03:59:54;;;;;;;16.23;14.50;;;11.20;99.90;;;;;;5051343;28;20444;-64
2022/09/12 04:02:21;;;;;;;18.93;14.03;;;11.20;99.90;;;;;;5050892;28;20475;-65
2022/09/12 04:04:48;;;;;;;17.20;14.90;;;11.10;99.90;;;;;;5051703;28;20448;-65
2022/09/12 04:07:15;;;;;;;15.50;13.90;;;11.10;99.90;;;;;;5051374;28;20444;-64
2022/09/12 04:09:43;;;;;;;15.13;13.50;;;11.10;99.90;;;;;;5051251;28;20913;-64
2022/09/12 04:12:10;;;;;;;17.20;13.90;;;11.10;99.90;;;;;;5050652;28;20487;-65
2022/09/12 04:14:37;;;;;;;13.93;12.47;;;11.10;99.90;;;;;;5051337;28;20448;-65
2022/09/12 04:17:04;;;;;;;16.73;14.33;;;11.10;99.90;;;;;;5050693;28;20818;-65
2022/09/12 04:19:31;;;;;;;19.27;15.10;;;11.10;99.90;;;;;;5051150;28;20490;-64
2022/09/12 04:21:57;;;;;;;15.80;14.20;;;11.20;99.90;;;;;;5050714;28;20463;-65
2022/09/12 04:24:24;;;;;;;16.40;14.50;;;11.10;99.90;;;;;;5050888;28;20455;-67
2022/09/12 04:26:52;;;;;;;17.03;14.63;;;11.10;99.90;;;;;;5050684;28;20452;-67
2022/09/12 04:29:19;;;;;;;16.20;13.43;;;11.10;99.90;;;;;;5050522;28;20445;-67
2022/09/12 04:31:46;;;;;;;14.30;12.83;;;11.00;99.90;;;;;;5049523;28;20476;-67
2022/09/12 04:34:13;;;;;;;15.00;13.40;;;11.10;99.90;;;;;;5050670;28;20444;-68
2022/09/12 04:36:40;;;;;;;16.03;14.43;;;11.20;99.90;;;;;;5049939;28;20503;-65
2022/09/12 04:39:07;;;;;;;16.67;13.67;;;11.20;99.90;;;;;;5049728;28;20447;-64
2022/09/12 04:41:36;;;;;;;15.47;13.87;;;11.20;99.90;;;;;;5050390;28;20452;-64
2022/09/12 04:44:06;;;;;;;16.40;13.47;;;11.20;99.90;;;;;;5054847;28;20524;-63
2022/09/12 04:46:36;;;;;;;15.80;14.23;;;11.10;99.90;;;;;;5050558;28;20467;-63
2022/09/12 04:49:02;;;;;;;17.70;12.83;;;11.10;99.90;;;;;;5050030;28;21284;-63
2022/09/12 04:51:32;;;;;;;15.73;13.00;;;10.90;99.90;;;;;;5050007;28;20508;-63
2022/09/12 04:54:01;;;;;;;16.80;14.60;;;11.00;99.90;;;;;;5050472;28;20509;-67
2022/09/12 04:56:28;;;;;;;16.50;12.80;;;11.00;99.90;;;;;;5048699;28;20449;-66
2022/09/12 04:58:57;;;;;;;15.90;14.30;;;11.00;99.90;;;;;;5041187;28;20452;-66
2022/09/12 05:01:26;;;;;;;14.50;12.67;;;11.00;99.90;;;;;;5046334;28;20472;-67
2022/09/12 05:03:53;;;;;;;16.43;13.40;;;11.00;99.90;;;;;;5036387;28;20480;-67
2022/09/12 05:06:22;;;;;;;17.53;13.43;;;11.00;99.90;;;;;;5038009;28;20448;-64
2022/09/12 05:08:50;;;;;;;18.33;13.20;;;10.80;99.90;;;;;;5046480;28;20448;-69
2022/09/12 05:11:19;;;;;;;15.60;12.13;;;10.80;99.90;;;;;;5049937;28;20492;-68
2022/09/12 05:13:46;;;;;;;19.13;14.00;;;10.80;99.90;;;;;;5047507;28;20981;-67
2022/09/12 05:16:15;;;;;;;16.17;14.47;;;10.80;99.90;;;;;;5036101;28;20452;-66
2022/09/12 05:18:44;;;;;;;15.20;12.80;;;10.80;99.90;;;;;;5044434;28;20510;-67
2022/09/12 05:21:13;;;;;;;13.20;11.80;;;10.70;99.90;;;;;;5048695;28;20471;-67
2022/09/12 05:23:40;;;;;;;16.13;12.40;;;10.70;99.90;;;;;;5046324;28;20475;-68
2022/09/12 05:26:08;;;;;;;16.60;12.80;;;10.70;99.90;;;;;;5049164;28;20445;-67
2022/09/12 05:28:37;;;;;;;17.33;14.80;;;10.80;99.90;;;;;;5048683;28;20850;-66
2022/09/12 05:31:06;;;;;;;13.87;12.47;;;10.80;99.90;;;;;;5049642;28;20672;-67
2022/09/12 05:33:35;;;;;;;15.20;13.60;;;10.80;99.90;;;;;;5065618;28;20447;-66
2022/09/12 05:36:06;;;;;;;14.00;12.40;;;10.80;99.90;;;;;;5067880;28;20449;-66
2022/09/12 05:38:34;;;;;;;15.00;13.40;;;10.80;99.90;;;;;;5069766;28;20446;-68
2022/09/12 05:41:06;;;;;;;13.47;12.17;;;10.80;99.90;;;;;;5067171;28;20497;-69
2022/09/12 05:43:33;;;;;;;16.90;14.10;;;10.90;99.90;;;;;;5069168;28;20537;-67
2022/09/12 05:46:03;;;;;;;14.77;13.30;;;11.00;99.90;;;;;;5069541;28;20451;-66
2022/09/12 05:48:30;;;;;;;14.80;12.90;;;11.10;99.90;;;;;;5068152;28;20501;-66
2022/09/12 05:51:01;;;;;;;13.50;12.10;;;11.10;99.90;;;;;;5069093;28;20483;-67
2022/09/12 05:53:30;;;;;;;13.57;12.23;;;11.20;99.90;;;;;;5068686;28;20925;-67
2022/09/12 05:56:06;;;;;;;13.83;11.60;;;11.40;99.90;;;;;;5069136;28;20443;-65
2022/09/12 05:58:33;;;;;;;14.00;12.70;;;11.40;99.90;;;;;;5068783;28;20442;-67
2022/09/12 06:01:06;;;;;;;14.97;12.27;;;11.50;99.90;;;;;;5069077;28;20438;-66
2022/09/12 06:03:33;;;;;;;13.27;11.87;;;11.50;99.90;;;;;;5069021;28;20451;-69
2022/09/12 06:06:02;;;;;;;13.17;11.77;;;11.60;99.90;;;;;;5069308;28;20976;-68
2022/09/12 06:08:31;;;;;;;14.30;12.30;;;11.70;99.90;;;;;;5069133;28;21006;-66
2022/09/12 06:11:02;;;;;;;13.20;11.80;;;11.70;99.90;;;;;;5069158;28;20471;-66
2022/09/12 06:13:30;;;;;;;12.90;11.60;;;11.70;99.90;;;;;;5068706;28;20454;-66
2022/09/12 06:16:03;;;;;;;13.37;12.10;;;11.70;99.90;;;;;;5068987;28;20451;-68
2022/09/12 06:18:30;;;;;;;13.10;11.80;;;11.80;99.90;;;;;;5069098;28;20530;-67
2022/09/12 06:20:57;;;;;;;13.27;11.70;;;11.80;99.90;;;;;;5068909;28;20439;-67
2022/09/12 06:23:25;;;;;;;13.47;12.07;;;12.00;99.90;;;;;;5068691;28;20442;-67
2022/09/12 06:25:54;;;;;;;11.90;10.80;;;12.00;99.90;;;;;;5068674;28;20469;-66
2022/09/12 06:28:20;;;;;;;12.60;11.40;;;12.10;99.90;;;;;;5068811;28;20710;-65
2022/09/12 06:30:47;;;;;;;11.63;10.53;;;12.10;99.90;;;;;;5068612;28;21008;-66
2022/09/12 06:33:14;;;;;;;12.10;10.90;;;12.10;99.90;;;;;;5068952;28;20872;-67
2022/09/12 06:35:41;;;;;;;11.67;10.57;;;12.10;99.90;;;;;;5069034;28;20458;-69
2022/09/12 06:38:08;;;;;;;13.23;11.93;;;12.10;99.90;;;;;;5068909;28;20466;-67
2022/09/12 06:40:42;;;;;;;12.00;10.90;;;12.10;99.90;;;;;;5068784;28;20466;-68
2022/09/12 06:43:12;;;;;;;11.57;10.47;;;12.30;99.90;;;;;;5068342;28;20520;-67
2022/09/12 06:45:39;;;;;;;13.03;11.73;;;12.40;99.90;;;;;;5068829;28;20494;-67
2022/09/12 06:48:06;;;;;;;15.10;12.70;;;12.50;99.90;;;;;;5069945;28;20774;-68
2022/09/12 06:50:32;;;;;;;14.17;12.77;;;12.60;99.90;;;;;;5072649;28;20853;-67
2022/09/12 06:52:59;;;;;;;14.63;13.00;;;12.60;99.90;;;;;;5072539;28;20470;-67
2022/09/12 06:55:26;;;;;;;14.17;12.00;;;12.80;99.90;;;;;;5072551;28;20454;-66
2022/09/12 06:57:54;;;;;;;14.10;12.73;;;12.80;99.90;;;;;;5072857;28;20439;-67
2022/09/12 07:00:23;;;;;;;16.33;14.20;;;12.90;99.90;;;;;;5072619;28;20469;-67
2022/09/12 07:02:54;;;;;;;15.73;12.53;;;13.00;99.90;;;;;;5072217;28;20470;-67
2022/09/12 07:05:21;;;;;;;13.70;12.40;;;13.10;99.90;;;;;;5072540;28;20986;-68
2022/09/12 07:07:48;;;;;;;14.20;12.80;;;13.20;99.90;;;;;;5071991;28;20455;-67
2022/09/12 07:10:14;;;;;;;15.67;13.40;;;13.40;99.90;;;;;;5071999;28;20447;-67
2022/09/12 07:12:41;;;;;;;15.20;13.70;;;13.50;99.90;;;;;;5071828;28;20455;-66
2022/09/12 07:15:10;;;;;;;15.50;13.50;;;13.60;99.90;;;;;;5072291;28;20549;-67
2022/09/12 07:17:38;;;;;;;14.53;13.27;;;13.70;99.90;;;;;;5071939;28;20494;-67
2022/09/12 07:20:06;;;;;;;15.23;13.70;;;13.80;99.90;;;;;;5072172;28;20952;-67
2022/09/12 07:22:32;;;;;;;14.13;12.73;;;13.90;99.90;;;;;;5071315;28;21020;-67
2022/09/12 07:24:59;;;;;;;15.43;13.80;;;14.00;99.90;;;;;;5072245;28;20850;-69
2022/09/12 07:27:26;;;;;;;14.73;13.23;;;14.10;99.90;;;;;;5072241;28;20459;-67
2022/09/12 07:29:53;;;;;;;15.43;13.83;;;14.20;99.90;;;;;;5071797;28;20630;-67
2022/09/12 07:32:21;;;;;;;19.40;14.80;;;14.30;99.90;;;;;;5071572;28;21047;-67
2022/09/12 07:34:49;;;;;;;16.10;14.47;;;14.40;99.90;;;;;;5071603;28;20447;-67
2022/09/12 07:37:16;;;;;;;13.83;11.97;;;14.50;99.90;;;;;;5072060;28;20457;-68
2022/09/12 07:39:43;;;;;;;14.40;12.90;;;14.60;99.90;;;;;;5071640;28;20546;-69
2022/09/12 07:42:11;;;;;;;15.53;14.10;;;14.70;99.90;;;;;;5071298;28;20935;-68
2022/09/12 07:44:38;;;;;;;14.70;13.20;;;14.80;99.90;;;;;;5071706;28;20458;-67
2022/09/12 07:47:05;;;;;;;15.60;14.10;;;14.90;99.90;;;;;;5071498;28;20443;-67
2022/09/12 07:49:31;;;;;;;14.33;13.00;;;15.00;99.90;;;;;;5071174;28;20473;-67
2022/09/12 07:52:00;;;;;;;14.33;12.83;;;15.10;99.90;;;;;;5070761;28;20506;-68
2022/09/12 07:54:26;;;;;;;15.23;13.73;;;15.20;99.90;;;;;;5071255;28;20447;-67
2022/09/12 07:56:53;;;;;;;13.10;11.90;;;15.30;99.90;;;;;;5071409;28;20446;-67
2022/09/12 07:59:20;;;;;;;11.77;10.60;;;15.40;99.90;;;;;;5070880;28;20458;-68
2022/09/12 08:01:47;;;;;;;13.77;12.47;;;15.50;99.90;;;;;;5070047;28;20449;-69
2022/09/12 08:04:13;;;;;;;14.00;12.13;;;15.70;99.90;;;;;;5071119;28;20439;-67
2022/09/12 08:06:40;;;;;;;12.67;11.40;;;15.70;99.90;;;;;;5071598;28;20465;-66
2022/09/12 08:09:10;;;;;;;12.47;11.33;;;15.70;99.90;;;;;;5071489;28;20447;-67
2022/09/12 08:11:37;;;;;;;12.80;11.70;;;15.80;99.90;;;;;;5071224;28;20574;-67
2022/09/12 08:14:04;;;;;;;12.57;11.27;;;15.90;99.90;;;;;;5070813;28;20545;-68
2022/09/12 08:16:33;;;;;;;9.60;8.80;;;16.00;99.90;;;;;;5070977;28;20683;-67
2022/09/12 08:19:01;;;;;;;9.80;8.90;;;16.10;99.90;;;;;;5070845;28;20451;-66
2022/09/12 08:21:30;;;;;;;10.53;9.63;;;16.30;99.90;;;;;;5071285;28;20485;-67
2022/09/12 08:23:59;;;;;;;9.20;8.40;;;16.40;99.90;;;;;;5070683;28;20443;-67
2022/09/12 08:26:28;;;;;;;9.40;8.50;;;16.60;99.90;;;;;;5070835;28;20447;-69
2022/09/12 08:28:55;;;;;;;8.50;7.80;;;16.80;99.90;;;;;;5070656;28;20937;-67
2022/09/12 08:31:23;;;;;;;8.27;7.57;;;16.90;99.90;;;;;;5070479;28;20487;-67
2022/09/12 08:33:51;;;;;;;11.10;8.97;;;17.00;99.90;;;;;;5070479;28;20451;-68
2022/09/12 08:36:20;;;;;;;9.30;8.50;;;17.20;99.90;;;;;;5070746;28;20450;-67
2022/09/12 08:38:48;;;;;;;9.60;8.80;;;17.30;99.90;;;;;;5070685;28;20477;-69
2022/09/12 08:41:30;;;;;;;10.07;8.93;;;17.50;99.90;;;;;;5070265;28;20459;-68
2022/09/12 08:44:12;;;;;;;9.57;8.67;;;17.70;99.90;;;;;;5070095;28;20450;-68
2022/09/12 08:46:47;;;;;;;10.13;9.13;;;17.90;99.90;;;;;;5070863;28;20933;-67
2022/09/12 08:49:23;;;;;;;9.73;8.83;;;18.20;99.90;;;;;;5070587;28;20454;-67
2022/09/12 08:51:50;;;;;;;10.37;9.40;;;18.40;99.90;;;;;;5070170;28;20482;-66
2022/09/12 08:54:21;;;;;;;8.53;7.83;;;18.50;99.90;;;;;;5070199;28;20493;-68
2022/09/12 08:56:49;;;;;;;8.27;7.57;;;18.70;99.90;;;;;;5070322;28;20439;-67
2022/09/12 08:59:16;;;;;;;8.33;7.53;;;18.80;99.90;;;;;;5070243;28;20920;-67
2022/09/12 09:01:44;;;;;;;9.00;8.20;;;19.00;99.90;;;;;;5069906;28;20463;-65
2022/09/12 09:04:29;;;;;;;9.40;8.50;;;19.30;99.90;;;;;;5070143;28;20502;-67
2022/09/12 09:07:28;;;;;;;9.97;9.07;;;19.50;99.90;;;;;;5070327;28;20450;-68
2022/09/12 09:10:08;;;;;;;7.03;6.43;;;19.60;99.90;;;;;;5069670;28;20443;-67
2022/09/12 09:12:44;;;;;;;7.23;6.53;;;20.00;99.90;;;;;;5069311;28;21091;-66
2022/09/12 09:15:26;;;;;;;8.03;7.33;;;20.50;99.90;;;;;;5069844;28;21271;-67
2022/09/12 09:17:57;;;;;;;8.30;7.27;;;21.00;99.90;;;;;;5069965;28;20496;-67
2022/09/12 09:20:30;;;;;;;6.77;6.10;;;21.50;99.90;;;;;;5070258;28;20447;-68
2022/09/12 09:23:01;;;;;;;6.90;6.30;;;21.80;99.90;;;;;;5070008;28;20479;-67
2022/09/12 09:25:44;;;;;;;7.23;6.40;;;22.30;99.90;;;;;;5069927;28;20459;-68
2022/09/12 09:28:19;;;;;;;6.30;5.70;;;22.80;99.90;;;;;;5070119;28;20451;-67
2022/09/12 09:30:46;;;;;;;6.10;5.60;;;22.80;99.90;;;;;;5070169;28;20450;-67
2022/09/12 09:33:21;;;;;;;7.17;6.57;;;22.90;99.90;;;;;;5069464;28;20491;-66
2022/09/12 09:35:52;;;;;;;6.00;5.50;;;22.80;99.90;;;;;;5069712;28;20481;-68
2022/09/12 09:38:24;;;;;;;7.30;6.70;;;23.10;99.90;;;;;;5069962;28;20443;-68
2022/09/12 09:41:05;;;;;;;6.73;6.20;;;23.10;99.90;;;;;;5069701;28;20443;-68
2022/09/12 09:43:33;;;;;;;6.90;6.30;;;23.40;99.90;;;;;;5069420;28;20454;-67
2022/09/12 09:46:00;;;;;;;5.80;5.30;;;23.70;99.90;;;;;;5069533;28;20832;-66
2022/09/12 09:48:29;;;;;;;6.70;6.10;;;24.10;99.90;;;;;;5069991;28;20447;-68
2022/09/12 09:50:58;;;;;;;5.30;4.70;;;24.40;99.90;;;;;;5071533;28;20455;-67
2022/09/12 09:53:45;;;;;;;5.73;5.20;;;24.50;99.90;;;;;;5069520;28;20450;-67
2022/09/12 09:56:18;;;;;;;6.17;5.57;;;24.70;99.90;;;;;;5069411;28;20455;-67
2022/09/12 09:58:46;;;;;;;4.70;4.30;;;24.50;99.90;;;;;;5069411;28;20466;-68
2022/09/12 10:01:16;;;;;;;4.13;3.83;;;24.70;99.90;;;;;;5069178;28;20852;-68
2022/09/12 10:03:50;;;;;;;4.93;4.40;;;25.30;99.90;;;;;;5069450;28;20891;-69
2022/09/12 10:06:33;;;;;;;4.87;4.47;;;25.60;99.90;;;;;;5069488;28;20521;-67
2022/09/12 10:09:18;;;;;;;5.20;4.80;;;26.00;99.40;;;;;;5069370;28;20554;-67
2022/09/12 10:11:45;;;;;;;4.67;4.27;;;26.30;98.50;;;;;;5068828;28;20544;-69
2022/09/12 10:14:29;;;;;;;5.00;4.40;;;26.20;99.30;;;;;;5069318;28;20439;-67
2022/09/12 10:16:57;;;;;;;4.27;3.87;;;25.90;97.70;;;;;;5069077;28;20936;-67
2022/09/12 10:19:34;;;;;;;3.93;3.53;;;25.80;98.00;;;;;;5069122;28;20498;-67
2022/09/12 10:22:02;;;;;;;4.03;3.73;;;25.80;98.00;;;;;;5070025;28;20465;-68
2022/09/12 10:24:34;;;;;;;3.33;3.03;;;26.20;97.00;;;;;;5073181;28;20494;-69
2022/09/12 10:27:08;;;;;;;4.90;3.77;;;26.80;95.50;;;;;;5073088;28;20454;-67
2022/09/12 10:29:45;;;;;;;3.70;3.37;;;27.20;92.20;;;;;;5073151;28;20462;-67
2022/09/12 10:32:15;;;;;;;3.80;3.50;;;27.50;92.60;;;;;;5072490;28;20494;-68
2022/09/12 10:34:43;;;;;;;4.70;4.30;;;27.90;91.60;;;;;;5073024;28;20986;-68
2022/09/12 10:37:19;;;;;;;3.67;3.40;;;27.70;92.90;;;;;;5073118;28;20439;-68
2022/09/12 10:39:53;;;;;;;3.50;3.20;;;27.60;92.70;;;;;;5073277;28;20446;-67
2022/09/12 10:42:51;;;;;;;3.40;3.10;;;28.00;92.40;;;;;;5072917;28;20522;-68
2022/09/12 10:45:37;;;;;;;3.63;3.33;;;28.40;90.70;;;;;;5073117;28;20482;-67
2022/09/12 10:48:27;;;;;;;3.90;3.10;;;28.70;89.60;;;;;;5073017;28;21093;-67
2022/09/12 10:50:53;;;;;;;4.30;3.27;;;29.10;87.30;;;;;;5072572;28;20446;-68
2022/09/12 10:53:22;;;;;;;3.33;3.10;;;29.10;85.80;;;;;;5072494;28;20485;-69
2022/09/12 10:56:09;;;;;;;3.90;2.63;;;28.60;87.00;;;;;;5072407;28;20818;-67
2022/09/12 10:59:10;;;;;;;5.60;3.07;;;28.90;88.60;;;;;;5072828;28;20446;-67
2022/09/12 11:01:42;;;;;;;3.33;3.07;;;29.50;86.60;;;;;;5039481;28;20470;-68
2022/09/12 11:04:24;;;;;;;3.00;2.70;;;29.90;84.70;;;;;;5072306;28;20546;-68
2022/09/12 11:07:04;;;;;;;2.83;2.63;;;30.50;84.10;;;;;;5072170;28;20438;-68
2022/09/12 11:09:38;;;;;;;2.90;2.70;;;30.80;80.80;;;;;;5072642;28;20438;-70
2022/09/12 11:12:15;;;;;;;3.87;3.47;;;30.40;82.20;;;;;;5072222;28;20903;-67
2022/09/12 11:14:56;;;;;;;3.43;3.13;;;30.30;80.40;;;;;;5072418;28;20438;-67
2022/09/12 11:17:34;;;;;;;5.30;3.00;;;30.50;80.00;;;;;;5072114;28;20979;-67
2022/09/12 11:20:47;;;;;;;3.07;2.87;;;30.70;76.80;;;;;;5072127;28;20824;-67
2022/09/12 11:23:49;;;;;;;2.60;2.37;;;31.00;77.40;;;;;;5068257;28;20443;-67
2022/09/12 11:26:34;;;;;;;2.50;2.30;;;30.80;76.60;;;;;;5028138;28;21055;-68
2022/09/12 11:29:10;;;;;;;2.40;2.20;;;30.70;75.00;;;;;;5038138;28;20455;-67
2022/09/12 11:31:56;;;;;;;2.63;2.43;;;31.10;74.80;;;;;;5038478;28;20467;-66
2022/09/12 11:34:32;;;;;;;2.57;2.37;;;31.40;70.60;;;;;;5040938;28;20452;-66
2022/09/12 11:37:16;;;;;;;2.73;2.53;;;31.40;68.60;;;;;;5041819;28;20463;-69
2022/09/12 11:39:45;;;;;;;3.00;2.70;;;31.30;66.30;;;;;;5042775;28;20444;-67
2022/09/12 11:42:17;;;;;;;2.40;2.20;;;31.30;68.30;;;;;;5040959;28;20484;-67
2022/09/12 11:44:48;;;;;;;2.63;2.43;;;32.10;72.10;;;;;;5040467;28;21005;-68
2022/09/12 11:47:17;;;;;;;2.27;2.07;;;33.20;68.50;;;;;;5040435;28;20460;-68
2022/09/12 11:49:48;;;;;;;3.77;2.87;;;33.50;65.60;;;;;;5041306;28;20451;-66
2022/09/12 11:52:17;;;;;;;2.93;2.63;;;33.50;62.90;;;;;;5041765;28;20491;-67
2022/09/12 11:54:49;;;;;;;2.30;2.10;;;33.10;60.10;;;;;;5039640;28;20459;-65
2022/09/12 11:57:20;;;;;;;2.90;2.60;;;33.40;63.20;;;;;;5042194;28;20479;-65
2022/09/12 11:59:52;;;;;;;2.50;2.10;;;33.40;61.00;;;;;;5038130;28;20452;-65
2022/09/12 12:02:26;;;;;;;2.43;2.20;;;32.70;59.80;;;;;;5040126;28;20567;-65
2022/09/12 12:05:15;;;;;;;2.33;2.13;;;32.70;66.50;;;;;;5039509;28;20453;-65
2022/09/12 12:07:51;;;;;;;2.57;2.20;;;33.30;61.70;;;;;;5046545;28;20458;-68
2022/09/12 12:10:27;;;;;;;2.50;2.30;;;34.60;59.90;;;;;;5041086;28;20450;-65
2022/09/12 12:12:56;;;;;;;2.37;2.17;;;34.70;59.20;;;;;;5053557;28;20488;-66
2022/09/12 12:15:25;;;;;;;2.17;1.97;;;35.30;58.70;;;;;;5042460;28;20444;-65
2022/09/12 12:18:04;;;;;;;2.40;2.20;;;36.00;55.30;;;;;;5045773;28;20466;-67
2022/09/12 12:20:33;;;;;;;2.20;1.70;;;36.40;52.90;;;;;;5042849;28;20455;-66
2022/09/12 12:23:00;;;;;;;2.13;1.70;;;36.60;53.10;;;;;;5039105;28;20909;-64
2022/09/12 12:25:41;;;;;;;1.90;1.60;;;36.40;52.50;;;;;;5042506;28;20486;-68
2022/09/12 12:28:08;;;;;;;1.67;1.43;;;36.70;51.50;;;;;;5037948;28;20449;-68
2022/09/12 12:31:03;;;;;;;1.57;1.43;;;37.50;49.80;;;;;;5040441;28;20456;-68
2022/09/12 12:33:54;;;;;;;3.30;1.40;;;38.30;48.60;;;;;;5041348;28;20529;-66
2022/09/12 12:36:40;;;;;;;1.20;1.10;;;38.60;44.40;;;;;;5041365;28;21000;-67
2022/09/12 12:39:48;;;;;;;3.00;1.10;;;37.60;43.30;;;;;;5042932;28;20460;-67
2022/09/12 12:43:03;;;;;;;4.07;1.60;;;37.50;45.70;;;;;;5049568;28;20551;-69
2022/09/12 12:46:11;;;;;;;2.30;1.10;;;37.70;44.10;;;;;;5047196;28;20452;-69
2022/09/12 12:49:04;;;;;;;1.60;1.50;;;37.80;47.00;;;;;;5049818;28;20808;-67
2022/09/12 12:52:00;;;;;;;1.93;1.70;;;38.00;42.60;;;;;;5050917;28;20467;-69
2022/09/12 12:54:29;;;;;;;2.10;1.73;;;37.00;41.90;;;;;;5048197;28;20452;-68
2022/09/12 12:57:04;;;;;;;1.60;1.30;;;35.00;45.70;;;;;;5049877;28;20447;-70
2022/09/12 12:59:32;;;;;;;1.50;1.40;;;34.90;45.30;;;;;;5047814;28;20512;-68